createdAt,value
2023-05-04T00:01:37.057Z,7.22
2023-05-04T00:07:00.382Z,7.21
2023-05-04T00:12:22.080Z,7.18
2023-05-04T00:17:43.929Z,7.15
2023-05-04T00:23:06.455Z,7.11
2023-05-04T00:28:28.055Z,7.07
2023-05-04T00:33:50.030Z,7.09
2023-05-04T00:39:12.093Z,7.02
2023-05-04T00:44:34.813Z,6.87
2023-05-04T00:49:57.321Z,6.74
2023-05-04T00:55:19.446Z,6.69
2023-05-04T01:00:41.531Z,6.60
2023-05-04T01:06:39.987Z,6.50
2023-05-04T01:12:21.728Z,6.47
2023-05-04T01:17:43.685Z,6.43
2023-05-04T01:23:05.491Z,6.42
2023-05-04T01:28:38.099Z,6.32
2023-05-04T01:34:00.358Z,6.16
2023-05-04T01:39:23.002Z,6.06
2023-05-04T01:44:44.721Z,6.03
2023-05-04T01:50:07.126Z,5.96
2023-05-04T01:55:29.195Z,5.93
2023-05-04T02:00:51.055Z,5.81
2023-05-04T02:06:13.445Z,5.81
2023-05-04T02:11:35.031Z,5.78
2023-05-04T02:16:56.821Z,5.72
2023-05-04T02:22:18.367Z,5.71
2023-05-04T02:27:40.915Z,5.70
2023-05-04T02:33:02.929Z,5.63
2023-05-04T02:38:24.347Z,5.67
2023-05-04T02:43:46.335Z,5.62
2023-05-04T02:49:08.530Z,5.65
2023-05-04T02:54:30.001Z,5.62
2023-05-04T02:59:51.834Z,5.56
2023-05-04T03:05:13.945Z,5.52
2023-05-04T03:10:35.783Z,5.60
2023-05-04T03:15:58.501Z,5.63
2023-05-04T03:21:19.957Z,5.61
2023-05-04T03:26:45.699Z,5.63
2023-05-04T03:32:07.994Z,5.60
2023-05-04T03:37:30.171Z,5.65
2023-05-04T03:42:52.631Z,5.68
2023-05-04T03:48:14.966Z,5.58
2023-05-04T03:53:39.082Z,5.57
2023-05-04T03:59:01.885Z,5.63
2023-05-04T04:04:25.547Z,5.70
2023-05-04T04:09:48.763Z,5.82
2023-05-04T04:15:10.900Z,5.94
2023-05-04T04:20:33.140Z,6.04
2023-05-04T04:25:54.649Z,6.94
2023-05-04T04:31:19.492Z,7.74
2023-05-04T04:36:41.429Z,7.89
2023-05-04T04:42:03.922Z,8.02
2023-05-04T04:47:25.675Z,8.23
2023-05-04T04:52:47.347Z,8.40
2023-05-04T04:58:09.479Z,8.55
2023-05-04T05:03:32.081Z,8.66
2023-05-04T05:08:53.657Z,8.89
2023-05-04T05:14:15.560Z,9.04
2023-05-04T05:19:38.144Z,9.24
2023-05-04T05:25:00.224Z,9.42
2023-05-04T05:30:22.027Z,9.62
2023-05-04T05:35:48.361Z,9.72
2023-05-04T05:41:13.016Z,9.97
2023-05-04T05:46:34.598Z,10.19
2023-05-04T05:51:57.215Z,10.49
2023-05-04T05:57:20.721Z,10.62
2023-05-04T06:02:42.551Z,10.86
2023-05-04T06:08:04.435Z,11.03
2023-05-04T06:13:26.568Z,11.32
2023-05-04T06:18:48.429Z,11.63
2023-05-04T06:24:10.004Z,11.89
2023-05-04T06:29:33.756Z,12.03
2023-05-04T06:34:55.759Z,12.16
2023-05-04T06:40:18.307Z,12.30
2023-05-04T06:45:40.331Z,12.36
2023-05-04T06:51:03.065Z,12.50
2023-05-04T06:56:25.063Z,12.67
2023-05-04T07:01:47.811Z,12.85
2023-05-04T07:07:09.484Z,12.99
2023-05-04T07:12:31.335Z,13.09
2023-05-04T07:17:53.036Z,13.18
2023-05-04T07:23:15.165Z,13.29
2023-05-04T07:28:37.262Z,13.43
2023-05-04T07:33:59.340Z,13.59
2023-05-04T07:39:23.486Z,13.56
2023-05-04T07:44:45.164Z,13.63
2023-05-04T07:50:09.651Z,13.74
2023-05-04T07:55:31.624Z,13.86
2023-05-04T08:00:53.200Z,14.03
2023-05-04T08:06:15.119Z,14.09
2023-05-04T08:11:37.981Z,14.34
2023-05-04T08:17:00.738Z,14.51
2023-05-04T08:22:22.618Z,14.51
2023-05-04T08:27:45.472Z,14.58
2023-05-04T08:33:08.492Z,14.72
2023-05-04T08:38:33.506Z,14.85
2023-05-04T08:43:55.494Z,14.98
2023-05-04T08:49:17.426Z,15.07
2023-05-04T08:54:40.076Z,15.11
2023-05-04T09:00:02.195Z,15.09
2023-05-04T09:05:23.955Z,15.17
2023-05-04T09:10:45.893Z,15.29
2023-05-04T09:16:08.321Z,15.44
2023-05-04T09:21:31.261Z,15.49
2023-05-04T09:27:13.173Z,15.55
2023-05-04T09:32:55.872Z,15.82
2023-05-04T09:38:28.724Z,16.04
2023-05-04T09:43:50.651Z,16.23
2023-05-04T09:49:13.887Z,16.39
2023-05-04T09:54:41.537Z,16.57
2023-05-04T10:00:04.632Z,16.68
2023-05-04T10:05:30.863Z,16.83
2023-05-04T10:10:54.462Z,16.69
2023-05-04T10:16:44.071Z,16.64
2023-05-04T10:22:14.732Z,16.64
2023-05-04T10:27:43.339Z,16.68
2023-05-04T10:33:05.237Z,16.88
2023-05-04T10:38:38.562Z,17.08
2023-05-04T10:44:04.727Z,17.13
2023-05-04T10:49:27.055Z,17.33
2023-05-04T10:55:01.546Z,17.53
2023-05-04T11:00:24.770Z,17.58
2023-05-04T11:05:50.828Z,17.69
2023-05-04T11:11:13.140Z,17.62
2023-05-04T11:16:34.980Z,17.66
2023-05-04T11:21:57.007Z,17.65
2023-05-04T11:27:27.659Z,17.75
2023-05-04T11:32:54.239Z,18.02
2023-05-04T11:38:20.289Z,18.03
2023-05-04T11:43:44.855Z,17.88
2023-05-04T11:49:06.820Z,18.02
2023-05-04T11:54:28.744Z,17.96
2023-05-04T11:59:50.894Z,17.96
2023-05-04T12:05:14.130Z,18.18
2023-05-04T12:10:36.062Z,18.21
2023-05-04T12:16:08.632Z,18.28
2023-05-04T12:21:31.431Z,18.42
2023-05-04T12:26:53.067Z,18.61
2023-05-04T12:32:15.154Z,18.50
2023-05-04T12:37:39.194Z,18.53
2023-05-04T12:43:01.262Z,18.65
2023-05-04T12:48:23.074Z,18.64
2023-05-04T12:53:44.868Z,18.61
2023-05-04T12:59:06.748Z,18.48
2023-05-04T13:04:28.573Z,18.55
2023-05-04T13:09:50.399Z,18.75
2023-05-04T13:15:13.944Z,18.71
2023-05-04T13:20:35.694Z,18.69
2023-05-04T13:25:57.601Z,18.67
2023-05-04T13:31:21.786Z,18.69
2023-05-04T13:36:43.989Z,18.79
2023-05-04T13:42:05.904Z,18.80
2023-05-04T13:47:27.748Z,18.85
2023-05-04T13:52:49.757Z,18.74
2023-05-04T13:58:11.809Z,18.66
2023-05-04T14:03:33.841Z,18.74
2023-05-04T14:08:57.560Z,18.90
2023-05-04T14:14:19.290Z,18.68
2023-05-04T14:19:41.313Z,18.67
2023-05-04T14:25:06.181Z,18.97
2023-05-04T14:30:28.075Z,19.17
2023-05-04T14:35:49.804Z,19.31
2023-05-04T14:41:11.634Z,19.08
2023-05-04T14:46:33.893Z,18.90
2023-05-04T14:51:55.892Z,18.74
2023-05-04T14:57:18.324Z,18.78
2023-05-04T15:02:42.292Z,18.72
2023-05-04T15:08:07.684Z,18.76
2023-05-04T15:13:29.436Z,18.77
2023-05-04T15:18:51.377Z,18.72
2023-05-04T15:24:13.188Z,18.69
2023-05-04T15:29:40.567Z,18.58
2023-05-04T15:35:06.335Z,18.48
2023-05-04T15:40:28.907Z,18.49
2023-05-04T15:45:52.852Z,18.51
2023-05-04T15:51:15.012Z,18.41
2023-05-04T15:56:36.810Z,18.25
2023-05-04T16:01:58.510Z,18.15
2023-05-04T16:07:20.361Z,18.21
2023-05-04T16:12:42.112Z,18.10
2023-05-04T16:18:04.391Z,17.96
2023-05-04T16:23:27.130Z,17.85
2023-05-04T16:28:52.197Z,17.84
2023-05-04T16:34:16.341Z,17.80
2023-05-04T16:39:38.498Z,17.78
2023-05-04T16:45:01.062Z,17.62
2023-05-04T16:50:23.275Z,17.47
2023-05-04T16:55:46.976Z,17.24
2023-05-04T17:01:10.342Z,17.01
2023-05-04T17:06:33.136Z,16.86
2023-05-04T17:11:55.220Z,16.74
2023-05-04T17:17:17.393Z,16.58
2023-05-04T17:22:38.940Z,16.41
2023-05-04T17:28:01.149Z,16.30
2023-05-04T17:33:23.947Z,16.19
2023-05-04T17:38:45.630Z,16.06
2023-05-04T17:44:07.438Z,15.97
2023-05-04T17:49:29.483Z,15.84
2023-05-04T17:54:54.012Z,15.68
2023-05-04T18:00:16.535Z,15.56
2023-05-04T18:05:41.309Z,15.46
2023-05-04T18:11:03.404Z,15.43
2023-05-04T18:16:25.765Z,15.37
2023-05-04T18:21:48.502Z,15.30
2023-05-04T18:27:10.436Z,15.18
2023-05-04T18:32:32.470Z,15.10
2023-05-04T18:37:56.366Z,14.97
2023-05-04T18:43:21.104Z,14.79
2023-05-04T18:48:42.731Z,14.69
2023-05-04T18:54:04.968Z,14.55
2023-05-04T18:59:27.098Z,14.46
2023-05-04T19:04:50.805Z,14.35
2023-05-04T19:10:12.674Z,14.26
2023-05-04T19:15:34.512Z,14.19
2023-05-04T19:20:56.318Z,14.10
2023-05-04T19:26:18.242Z,14.02
2023-05-04T19:31:43.757Z,13.99
2023-05-04T19:37:05.613Z,13.89
2023-05-04T19:42:28.565Z,13.78
2023-05-04T19:47:53.479Z,13.68
2023-05-04T19:53:16.790Z,13.59
2023-05-04T19:58:39.056Z,13.54
2023-05-04T20:04:03.393Z,13.48
2023-05-04T20:09:25.627Z,13.44
2023-05-04T20:14:47.350Z,13.41
2023-05-04T20:20:10.883Z,13.34
2023-05-04T20:25:32.812Z,13.25
2023-05-04T20:30:56.690Z,13.17
2023-05-04T20:36:18.488Z,13.08
2023-05-04T20:41:40.798Z,12.98
2023-05-04T20:47:02.763Z,12.92
2023-05-04T20:52:28.073Z,12.86
2023-05-04T20:57:52.318Z,12.78
2023-05-04T21:03:14.875Z,12.75
2023-05-04T21:08:39.681Z,12.69
2023-05-04T21:14:01.237Z,12.72
2023-05-04T21:19:23.138Z,12.74
2023-05-04T21:24:49.516Z,12.68
2023-05-04T21:30:11.472Z,12.62
2023-05-04T21:35:33.360Z,12.53
2023-05-04T21:40:55.277Z,12.46
2023-05-04T21:46:17.146Z,12.43
2023-05-04T21:51:38.740Z,12.35
2023-05-04T21:57:01.266Z,12.29
2023-05-04T22:02:25.024Z,12.20
2023-05-04T22:07:48.832Z,12.11
2023-05-04T22:13:11.698Z,12.01
2023-05-04T22:18:34.096Z,11.94
2023-05-04T22:23:55.929Z,11.81
2023-05-04T22:29:17.982Z,11.70
2023-05-04T22:34:40.495Z,11.66
2023-05-04T22:40:06.684Z,11.64
2023-05-04T22:45:28.468Z,11.64
2023-05-04T22:50:50.993Z,11.58
2023-05-04T22:56:12.942Z,11.50
2023-05-04T23:01:35.046Z,11.49
2023-05-04T23:06:57.188Z,11.49
2023-05-04T23:12:18.605Z,11.41
2023-05-04T23:17:41.279Z,11.34
2023-05-04T23:23:03.369Z,11.28
2023-05-04T23:28:25.149Z,11.13
2023-05-04T23:33:51.363Z,11.02
2023-05-04T23:39:13.055Z,10.89
2023-05-04T23:44:34.978Z,10.84
2023-05-04T23:49:56.789Z,10.77
2023-05-04T23:55:18.779Z,10.61
